Willshire, Ohio
Current Conditions -  °F | °C
As of 9:54 PM on Wednesday 22 Oct 2014 (Local Time) from KFWA Reporting Station
Clear Clear  
Wind Chill: 39°   Ceiling: Unl
Heat Index: 39°   Visibility: 10mi
Dew Point: 36°   Wind: 3mph
Humidity: 89%   Direction: 100°E
Pressure: 30.3"   Gusts: NA
Location:  40.75°N, 84.79°W
Report Text: KFWA 230154Z 10003KT 10SM CLR 04/02 A3030 RMK AO2 SLP265 T00390022
Loading
Personal Weather Stations






























Interactive Weather Map
Tropical Storm Tracking
New forecast layout! Learn more

10-Day Weather Forecast

Advertisements
Track Severe Weather on mobile